Time;durP1;ratioP1;P1;durP2;ratioP2;P2;SDS_P1;SDS_P2;PMS_P1;PMS_P2;Temp;Humidity;BMP_temperature;BMP_pressure;BME280_temperature;BME280_humidity;BME280_pressure;Samples;Min_cycle;Max_cycle;Signal;HPM_P1;HPM_P2
2022/04/11 00:01:08;;;;;;;4.70;4.15;;;;;;;0.57;100.00;96163.38;5072808;28;24417;-76
2022/04/11 00:03:36;;;;;;;5.30;4.00;;;;;;;0.62;100.00;96169.22;5072686;28;24431;-76
2022/04/11 00:06:02;;;;;;;5.30;3.92;;;;;;;0.65;100.00;96161.53;5072617;28;24426;-76
2022/04/11 00:08:29;;;;;;;4.90;3.67;;;;;;;0.69;100.00;96158.91;5072622;28;24430;-76
2022/04/11 00:10:55;;;;;;;7.43;2.78;;;;;;;0.74;100.00;96163.91;5072141;28;24423;-76
2022/04/11 00:13:22;;;;;;;3.20;2.60;;;;;;;0.78;100.00;96160.47;5072280;28;24418;-76
2022/04/11 00:15:48;;;;;;;2.53;2.33;;;;;;;0.80;100.00;96155.31;5072115;28;25055;-76
2022/04/11 00:18:15;;;;;;;8.60;2.50;;;;;;;0.81;100.00;96157.81;5072260;28;24484;-76
2022/04/11 00:20:42;;;;;;;3.13;2.50;;;;;;;0.78;100.00;96157.91;5072208;28;24449;-77
2022/04/11 00:23:09;;;;;;;3.53;2.47;;;;;;;0.81;100.00;96157.00;5072189;28;24520;-76
2022/04/11 00:25:37;;;;;;;3.58;2.33;;;;;;;0.63;100.00;96153.06;5072231;28;24828;-76
2022/04/11 00:28:04;;;;;;;3.33;2.28;;;;;;;0.63;100.00;96153.94;5071888;28;24970;-76
2022/04/11 00:30:30;;;;;;;3.25;2.40;;;;;;;0.68;100.00;96153.84;5072079;28;24430;-77
2022/04/11 00:32:57;;;;;;;4.80;2.30;;;;;;;0.69;100.00;96150.41;5072140;28;24459;-76
2022/04/11 00:35:23;;;;;;;3.77;2.43;;;;;;;0.66;100.00;96147.91;5072030;28;25143;-76
2022/04/11 00:37:51;;;;;;;2.90;2.30;;;;;;;0.69;100.00;96138.50;5071800;28;24488;-76
2022/04/11 00:40:19;;;;;;;4.20;2.92;;;;;;;0.79;100.00;96134.09;5071965;28;24447;-78
2022/04/11 00:42:48;;;;;;;6.85;3.58;;;;;;;0.90;100.00;96138.97;5071870;28;24537;-77
2022/04/11 00:45:15;;;;;;;4.63;3.10;;;;;;;0.58;100.00;96131.91;5071913;28;24515;-75
2022/04/11 00:47:41;;;;;;;3.88;2.97;;;;;;;0.45;100.00;96124.50;5071824;28;24430;-76
2022/04/11 00:50:10;;;;;;;8.00;3.17;;;;;;;0.43;100.00;96121.13;5071483;28;24963;-76
2022/04/11 00:52:38;;;;;;;3.67;3.10;;;;;;;0.43;100.00;96122.84;5071185;28;24426;-76
2022/04/11 00:55:08;;;;;;;5.95;3.63;;;;;;;0.41;100.00;96127.97;5071255;28;24978;-76
2022/04/11 00:57:35;;;;;;;4.77;3.10;;;;;;;0.46;100.00;96126.19;5071690;28;24466;-76
2022/04/11 01:00:03;;;;;;;7.80;3.10;;;;;;;0.45;100.00;96127.06;5071383;28;24465;-76
2022/04/11 01:02:30;;;;;;;4.72;2.92;;;;;;;0.44;100.00;96130.44;5071424;28;24434;-76
2022/04/11 01:04:56;;;;;;;4.95;3.65;;;;;;;0.39;100.00;96121.22;5071291;28;24445;-76
2022/04/11 01:07:23;;;;;;;4.05;2.97;;;;;;;0.36;100.00;96124.66;5071440;28;24425;-77
2022/04/11 01:09:49;;;;;;;6.10;3.20;;;;;;;0.39;100.00;96123.75;5071060;28;24448;-76
2022/04/11 01:12:17;;;;;;;3.50;2.67;;;;;;;0.44;100.00;96122.78;5070959;28;24521;-76
2022/04/11 01:14:43;;;;;;;4.75;2.40;;;;;;;0.35;100.00;96117.88;5070955;28;25004;-76
2022/04/11 01:17:11;;;;;;;4.75;2.60;;;;;;;0.24;100.00;96117.22;5071280;28;24423;-75
2022/04/11 01:19:37;;;;;;;3.70;2.30;;;;;;;0.13;100.00;96119.94;5071065;28;24525;-75
2022/04/11 01:22:05;;;;;;;5.40;2.75;;;;;;;0.17;100.00;96111.38;5070940;28;24437;-76
2022/04/11 01:24:34;;;;;;;4.68;2.47;;;;;;;-0.06;100.00;96116.03;5070880;28;24504;-75
2022/04/11 01:27:00;;;;;;;5.47;2.70;;;;;;;-0.20;100.00;96113.69;5070894;28;24985;-76
2022/04/11 01:29:28;;;;;;;3.53;2.80;;;;;;;-0.07;100.00;96120.28;5070949;28;24419;-75
2022/04/11 01:31:55;;;;;;;2.97;2.63;;;;;;;0.03;100.00;96108.22;5070433;28;24990;-76
2022/04/11 01:34:21;;;;;;;3.67;2.78;;;;;;;0.19;100.00;96112.22;5071132;28;24906;-75
2022/04/11 01:36:48;;;;;;;4.78;3.03;;;;;;;0.44;100.00;96112.59;5070516;28;24419;-75
2022/04/11 01:39:16;;;;;;;3.97;3.03;;;;;;;0.28;100.00;96107.81;5071009;28;24530;-76
2022/04/11 01:41:43;;;;;;;5.30;3.23;;;;;;;0.28;100.00;96101.00;5070588;28;24437;-75
2022/04/11 01:44:09;;;;;;;4.20;3.28;;;;;;;0.05;100.00;96098.84;5070776;28;25029;-75
2022/04/11 01:46:36;;;;;;;4.35;3.60;;;;;;;0.33;100.00;96104.31;5070746;28;24422;-76
2022/04/11 01:49:02;;;;;;;4.43;3.58;;;;;;;0.13;100.00;96091.94;5070820;28;24425;-76
2022/04/11 01:51:28;;;;;;;5.95;3.60;;;;;;;-0.02;100.00;96092.19;5070218;28;24435;-75
2022/04/11 01:53:55;;;;;;;5.38;3.55;;;;;;;-0.07;100.00;96096.53;5070528;28;25005;-75
2022/04/11 01:56:23;;;;;;;6.93;3.53;;;;;;;-0.09;100.00;96093.97;5070520;28;24442;-75
2022/04/11 01:58:49;;;;;;;4.57;3.63;;;;;;;-0.07;100.00;96086.34;5070424;28;24963;-76
2022/04/11 02:01:17;;;;;;;6.80;3.60;;;;;;;0.01;100.00;96092.13;5070149;28;24426;-76
2022/04/11 02:03:45;;;;;;;5.95;3.85;;;;;;;-0.02;100.00;96087.94;5070400;28;24421;-75
2022/04/11 02:06:11;;;;;;;4.93;3.85;;;;;;;0.05;100.00;96086.13;5070520;28;24519;-75
2022/04/11 02:08:38;;;;;;;3.85;3.45;;;;;;;-0.03;100.00;96083.72;5070465;28;24784;-75
2022/04/11 02:11:04;;;;;;;5.82;3.80;;;;;;;-0.03;100.00;96078.63;5071631;28;24800;-75
2022/04/11 02:13:33;;;;;;;5.10;3.88;;;;;;;0.05;100.00;96077.66;5074696;28;24513;-75
2022/04/11 02:15:59;;;;;;;4.85;3.50;;;;;;;0.04;100.00;96074.28;5074364;28;24605;-75
2022/04/11 02:18:26;;;;;;;4.80;3.30;;;;;;;0.08;100.00;96072.50;5074365;28;24506;-75
2022/04/11 02:20:53;;;;;;;6.72;3.55;;;;;;;0.12;100.00;96064.78;5074260;28;24530;-75
2022/04/11 02:23:19;;;;;;;4.00;2.90;;;;;;;0.16;100.00;96068.97;5074403;28;24433;-75
2022/04/11 02:25:46;;;;;;;4.33;3.07;;;;;;;0.29;100.00;96059.38;5074298;28;24415;-75
2022/04/11 02:28:12;;;;;;;4.15;3.53;;;;;;;0.36;100.00;96057.56;5074170;28;24423;-75
2022/04/11 02:30:40;;;;;;;3.65;2.92;;;;;;;0.43;100.00;96054.88;5074124;28;24418;-75
2022/04/11 02:33:07;;;;;;;5.63;3.53;;;;;;;0.40;100.00;96038.81;5073980;28;24480;-75
2022/04/11 02:35:34;;;;;;;4.28;2.95;;;;;;;0.21;100.00;96039.13;5074077;28;24449;-75
2022/04/11 02:38:00;;;;;;;5.78;3.50;;;;;;;0.17;100.00;96031.59;5074356;28;24419;-75
2022/04/11 02:40:27;;;;;;;5.57;3.75;;;;;;;-0.08;100.00;96034.56;5073888;28;24480;-75
2022/04/11 02:42:53;;;;;;;5.07;4.22;;;;;;;-0.23;100.00;96034.81;5073833;28;24796;-75
2022/04/11 02:45:20;;;;;;;4.68;3.50;;;;;;;-0.09;100.00;96024.41;5073781;28;24776;-75
2022/04/11 02:47:48;;;;;;;5.72;3.75;;;;;;;-0.01;100.00;96022.56;5073777;28;25027;-76
2022/04/11 02:50:14;;;;;;;5.22;3.58;;;;;;;0.08;100.00;96007.13;5073991;28;24540;-75
2022/04/11 02:52:40;;;;;;;5.25;4.10;;;;;;;0.16;100.00;96018.00;5073653;28;24438;-76
2022/04/11 02:55:08;;;;;;;5.22;3.92;;;;;;;0.08;100.00;96021.59;5066966;28;24987;-76
2022/04/11 02:57:36;;;;;;;5.53;3.97;;;;;;;0.11;100.00;96016.41;5062197;28;24418;-75
2022/04/11 03:00:05;;;;;;;5.78;4.03;;;;;;;0.16;100.00;96010.38;5073508;28;24429;-75
2022/04/11 03:02:31;;;;;;;7.00;3.88;;;;;;;0.31;100.00;96000.78;5073470;28;24868;-75
2022/04/11 03:04:59;;;;;;;5.25;3.58;;;;;;;0.24;100.00;96000.03;5054066;28;24960;-76
2022/04/11 03:07:27;;;;;;;4.05;3.45;;;;;;;0.28;100.00;96001.66;5053500;28;25136;-75
2022/04/11 03:09:53;;;;;;;4.45;3.38;;;;;;;0.32;100.00;95992.25;5053491;28;24422;-75
2022/04/11 03:12:20;;;;;;;4.82;3.85;;;;;;;0.40;100.00;95996.31;5053009;28;24523;-75
2022/04/11 03:14:48;;;;;;;11.63;3.80;;;;;;;0.18;100.00;96000.16;5053158;28;24482;-75
2022/04/11 03:17:14;;;;;;;6.78;4.07;;;;;;;0.07;100.00;95990.16;5053256;28;24477;-75
2022/04/11 03:19:41;;;;;;;6.78;3.80;;;;;;;0.15;100.00;95985.78;5053993;28;24464;-75
2022/04/11 03:22:09;;;;;;;9.32;4.03;;;;;;;0.09;100.00;95990.16;5064694;28;24496;-75
2022/04/11 03:24:35;;;;;;;4.72;3.45;;;;;;;0.11;100.00;95991.81;5073144;28;24426;-75
2022/04/11 03:27:02;;;;;;;7.70;3.97;;;;;;;0.17;100.00;95991.66;5073188;28;24418;-75
2022/04/11 03:29:28;;;;;;;6.05;3.78;;;;;;;0.16;100.00;95986.63;5073207;28;24517;-75
2022/04/11 03:31:55;;;;;;;6.80;3.70;;;;;;;0.24;100.00;95983.06;5072933;28;24442;-75
2022/04/11 03:34:21;;;;;;;6.45;3.78;;;;;;;0.19;100.00;95984.84;5073015;28;24966;-75
2022/04/11 03:36:48;;;;;;;5.55;3.75;;;;;;;0.38;100.00;95980.25;5073027;28;24805;-77
2022/04/11 03:39:16;;;;;;;5.55;3.40;;;;;;;0.35;100.00;95985.41;5073394;28;24431;-77
2022/04/11 03:41:43;;;;;;;3.78;3.38;;;;;;;0.12;100.00;95987.53;5072943;28;24480;-77
2022/04/11 03:44:10;;;;;;;5.13;3.75;;;;;;;0.08;100.00;95979.13;5073070;28;24423;-78
2022/04/11 03:46:36;;;;;;;4.18;3.35;;;;;;;0.00;100.00;95983.53;5072963;28;24823;-76
2022/04/11 03:49:03;;;;;;;5.55;3.65;;;;;;;-0.01;100.00;95985.19;5073129;28;24970;-77
2022/04/11 03:51:29;;;;;;;6.03;3.60;;;;;;;0.03;100.00;95978.34;5072746;28;24430;-78
2022/04/11 03:53:56;;;;;;;5.03;3.40;;;;;;;0.08;100.00;95970.66;5072619;28;24488;-77
2022/04/11 03:56:23;;;;;;;6.35;4.28;;;;;;;0.54;100.00;95972.28;5072463;28;24467;-77
2022/04/11 03:58:50;;;;;;;4.88;3.17;;;;;;;0.56;100.00;95973.94;5072731;28;24504;-77
2022/04/11 04:01:16;;;;;;;4.35;3.70;;;;;;;0.14;100.00;95970.50;5058128;28;25002;-77
2022/04/11 04:03:43;;;;;;;7.67;3.37;;;;;;;-0.10;100.00;95970.09;5052765;28;24922;-77
2022/04/11 04:06:11;;;;;;;5.60;3.70;;;;;;;-0.18;100.00;95976.22;5052615;28;24434;-77
2022/04/11 04:08:37;;;;;;;9.82;3.58;;;;;;;-0.14;100.00;95963.41;5052484;28;24404;-77
2022/04/11 04:11:04;;;;;;;7.18;3.60;;;;;;;-0.15;100.00;95961.72;5051825;28;24980;-77
2022/04/11 04:13:34;;;;;;;6.07;3.40;;;;;;;-0.17;100.00;95960.91;5052550;28;24422;-77
2022/04/11 04:16:01;;;;;;;9.65;4.80;;;;;;;-0.30;100.00;95964.50;5052099;28;24442;-77
2022/04/11 04:18:27;;;;;;;4.72;3.47;;;;;;;-0.57;100.00;95981.91;5052490;28;24423;-76
2022/04/11 04:20:53;;;;;;;6.50;3.50;;;;;;;-0.84;100.00;95973.03;5051818;28;24435;-78
2022/04/11 04:23:20;;;;;;;5.13;3.45;;;;;;;-0.82;100.00;95978.91;5052292;28;24507;-78
2022/04/11 04:25:46;;;;;;;4.70;3.03;;;;;;;-0.72;100.00;95974.53;5052271;28;24422;-77
2022/04/11 04:28:17;;;;;;;3.75;2.88;;;;;;;-0.59;100.00;95978.56;5052266;28;24812;-77
2022/04/11 04:30:44;;;;;;;3.65;2.85;;;;;;;-0.50;100.00;95983.50;5051992;28;25014;-76
2022/04/11 04:33:12;;;;;;;5.55;3.22;;;;;;;-0.37;100.00;95986.69;5051446;28;24426;-77
2022/04/11 04:35:38;;;;;;;4.72;3.50;;;;;;;-0.33;100.00;95982.41;5051894;28;24530;-77
2022/04/11 04:38:05;;;;;;;3.28;2.92;;;;;;;-0.32;100.00;95979.81;5051878;28;24865;-77
2022/04/11 04:40:32;;;;;;;4.40;3.08;;;;;;;-0.31;100.00;95973.84;5051617;28;24537;-77
2022/04/11 04:42:59;;;;;;;3.90;2.78;;;;;;;-0.18;100.00;95973.66;5051713;28;24431;-77
2022/04/11 04:45:25;;;;;;;5.55;3.22;;;;;;;-0.03;100.00;95975.94;5053097;28;24434;-79
2022/04/11 04:47:53;;;;;;;4.68;3.17;;;;;;;0.06;100.00;95973.19;5054799;28;24415;-79
2022/04/11 04:50:20;;;;;;;4.60;3.60;;;;;;;-0.21;100.00;95972.00;5061827;28;24965;-77
2022/04/11 04:52:46;;;;;;;6.45;4.10;;;;;;;-0.15;100.00;95973.59;5057164;28;24450;-76
2022/04/11 04:55:12;;;;;;;7.90;5.05;;;;;;;-0.19;100.00;95971.97;5051366;28;25170;-78
2022/04/11 04:57:39;;;;;;;6.55;3.95;;;;;;;-0.10;100.00;95976.91;5051230;28;24817;-78
2022/04/11 05:00:07;;;;;;;4.93;3.63;;;;;;;-0.39;100.00;95974.84;5051271;28;24949;-78
2022/04/11 05:02:37;;;;;;;7.32;3.47;;;;;;;-0.46;100.00;95971.56;5051529;28;24427;-78
2022/04/11 05:05:10;;;;;;;5.80;3.28;;;;;;;-0.59;100.00;95970.13;5051188;28;24949;-78
2022/04/11 05:07:37;;;;;;;6.13;3.15;;;;;;;-0.53;100.00;95972.53;5051564;28;24419;-77
2022/04/11 05:10:05;;;;;;;3.90;3.33;;;;;;;-0.54;100.00;95970.88;5051421;28;24427;-78
2022/04/11 05:12:38;;;;;;;4.50;3.22;;;;;;;-0.52;100.00;95969.97;5102471;22;24466;-74
2022/04/11 05:15:06;;;;;;;5.00;3.60;;;;;;;-0.58;100.00;95971.78;5071049;28;24506;-75
2022/04/11 05:17:32;;;;;;;5.57;3.63;;;;;;;-0.55;100.00;95970.03;5067580;28;24451;-76
2022/04/11 05:19:59;;;;;;;4.90;4.00;;;;;;;-0.46;100.00;95970.75;5051191;28;24430;-74
2022/04/11 05:22:26;;;;;;;4.55;3.58;;;;;;;-0.40;100.00;95958.75;5050676;28;24968;-75
2022/04/11 05:24:53;;;;;;;7.57;4.07;;;;;;;-0.42;100.00;95955.38;5050940;28;24843;-75
2022/04/11 05:27:19;;;;;;;5.60;3.80;;;;;;;-0.28;100.00;95956.00;5050897;28;24419;-75
2022/04/11 05:29:45;;;;;;;4.68;3.72;;;;;;;-0.12;100.00;95959.09;5050840;28;24423;-76
2022/04/11 05:32:12;;;;;;;4.72;3.88;;;;;;;-0.04;100.00;95956.41;5050474;28;24411;-75
2022/04/11 05:34:38;;;;;;;6.30;3.60;;;;;;;0.15;100.00;95955.22;5050957;28;24808;-76
2022/04/11 05:37:06;;;;;;;9.30;4.60;;;;;;;0.30;100.00;95954.09;5050858;28;24443;-74
2022/04/11 05:39:33;;;;;;;7.85;4.57;;;;;;;0.54;100.00;95955.28;5051274;28;24447;-76
2022/04/11 05:42:00;;;;;;;8.40;4.68;;;;;;;0.59;100.00;95953.47;5051152;28;24478;-74
2022/04/11 05:44:26;;;;;;;5.45;4.18;;;;;;;0.67;100.00;95961.81;5051410;28;24497;-76
2022/04/11 05:46:53;;;;;;;5.72;4.60;;;;;;;0.77;100.00;95962.44;5050420;28;24415;-75
2022/04/11 05:49:20;;;;;;;9.77;5.40;;;;;;;0.75;100.00;95969.31;5051027;28;24462;-76
2022/04/11 05:51:47;;;;;;;7.35;5.13;;;;;;;0.79;100.00;95968.38;5050994;28;24462;-75
2022/04/11 05:54:13;;;;;;;11.35;5.22;;;;;;;0.62;100.00;95971.25;5051165;28;24469;-74
2022/04/11 05:56:41;;;;;;;8.55;5.60;;;;;;;0.56;100.00;95968.84;5050689;28;25042;-74
2022/04/11 05:59:08;;;;;;;8.40;5.03;;;;;;;0.57;100.00;95967.97;5050827;28;24997;-76
2022/04/11 06:01:35;;;;;;;6.47;4.35;;;;;;;0.48;100.00;95963.91;5049750;28;24434;-76
2022/04/11 06:04:01;;;;;;;6.20;4.40;;;;;;;0.44;100.00;95969.91;5050144;28;24975;-77
2022/04/11 06:06:28;;;;;;;7.35;4.38;;;;;;;0.37;100.00;95972.63;5050450;28;24495;-76
2022/04/11 06:08:54;;;;;;;6.85;4.18;;;;;;;0.40;100.00;95970.00;5050486;28;24422;-74
2022/04/11 06:11:21;;;;;;;10.18;4.25;;;;;;;0.45;100.00;95965.69;5049892;28;24857;-73
2022/04/11 06:13:48;;;;;;;6.78;4.28;;;;;;;0.53;100.00;95973.16;5050271;28;24994;-74
2022/04/11 06:16:15;;;;;;;8.10;4.55;;;;;;;0.59;100.00;95973.84;5050120;28;25098;-74
2022/04/11 06:18:42;;;;;;;5.70;4.07;;;;;;;0.91;100.00;95968.09;5050500;28;24423;-73
2022/04/11 06:21:08;;;;;;;9.85;4.45;;;;;;;1.28;100.00;95971.53;5050266;28;24415;-74
2022/04/11 06:23:35;;;;;;;6.07;4.72;;;;;;;1.55;100.00;95968.31;5050235;28;24520;-74
2022/04/11 06:26:01;;;;;;;6.57;4.57;;;;;;;1.70;100.00;95965.38;5050206;28;24446;-75
2022/04/11 06:28:27;;;;;;;7.00;4.30;;;;;;;1.75;100.00;95965.28;5050074;28;24511;-74
2022/04/11 06:30:55;;;;;;;7.70;4.90;;;;;;;1.98;100.00;95962.13;5050090;28;24435;-74
2022/04/11 06:33:22;;;;;;;9.07;4.88;;;;;;;2.28;100.00;95959.66;5050198;28;25010;-74
2022/04/11 06:35:48;;;;;;;6.05;5.03;;;;;;;2.42;100.00;95957.56;5050223;28;24419;-74
2022/04/11 06:38:14;;;;;;;6.20;4.20;;;;;;;2.37;100.00;95959.38;5050338;28;24438;-74
2022/04/11 06:40:41;;;;;;;7.07;4.57;;;;;;;2.49;100.00;95948.84;5049842;28;24427;-74
2022/04/11 06:43:07;;;;;;;8.07;5.18;;;;;;;2.61;100.00;95945.91;5049460;28;24418;-75
2022/04/11 06:45:34;;;;;;;8.23;4.82;;;;;;;2.25;100.00;95945.22;5049849;28;24426;-74
2022/04/11 06:48:01;;;;;;;7.32;5.15;;;;;;;2.31;100.00;95945.06;5049816;28;24998;-74
2022/04/11 06:50:28;;;;;;;8.53;4.97;;;;;;;2.32;100.00;95946.72;5049292;28;24430;-74
2022/04/11 06:52:54;;;;;;;17.43;5.80;;;;;;;2.37;100.00;95954.25;5049527;28;25007;-73
2022/04/11 06:55:21;;;;;;;6.93;4.93;;;;;;;2.40;100.00;95957.56;5049610;28;24430;-74
2022/04/11 06:57:47;;;;;;;5.70;4.83;;;;;;;2.78;100.00;95953.13;5052712;28;24542;-74
2022/04/11 07:00:14;;;;;;;6.17;4.63;;;;;;;2.82;100.00;95961.53;5056552;28;24514;-74
2022/04/11 07:02:41;;;;;;;12.95;5.45;;;;;;;3.00;100.00;95955.00;5052886;28;24913;-73
2022/04/11 07:05:09;;;;;;;5.53;4.50;;;;;;;3.14;100.00;95952.88;5053435;28;24442;-74
2022/04/11 07:07:37;;;;;;;9.43;5.63;;;;;;;3.08;100.00;95951.34;5053571;28;24418;-75
2022/04/11 07:10:04;;;;;;;7.20;5.00;;;;;;;3.31;100.00;95948.06;5053251;28;24970;-74
2022/04/11 07:12:30;;;;;;;9.77;5.35;;;;;;;3.51;100.00;95952.56;5052613;28;24442;-76
2022/04/11 07:15:00;;;;;;;7.47;5.30;;;;;;;3.59;100.00;95949.75;5053282;28;24415;-75
2022/04/11 07:17:28;;;;;;;6.45;4.70;;;;;;;3.66;100.00;95950.38;5053308;28;24450;-74
2022/04/11 07:19:55;;;;;;;5.07;4.50;;;;;;;3.77;100.00;95948.31;5058220;28;24445;-73
2022/04/11 07:22:22;;;;;;;10.48;5.63;;;;;;;4.00;99.91;95948.38;5066118;28;24501;-72
2022/04/11 07:24:49;;;;;;;10.73;6.05;;;;;;;3.78;100.00;95955.09;5071404;28;24902;-73
2022/04/11 07:27:15;;;;;;;7.70;5.25;;;;;;;3.91;100.00;95950.41;5067396;28;24430;-72
2022/04/11 07:29:42;;;;;;;9.43;5.43;;;;;;;3.92;100.00;95950.34;5053010;28;24415;-73
2022/04/11 07:32:09;;;;;;;12.25;5.68;;;;;;;4.52;100.00;95953.41;5052369;28;24434;-73
2022/04/11 07:34:35;;;;;;;9.40;6.18;;;;;;;4.71;99.41;95956.13;5053317;28;25124;-74
2022/04/11 07:37:01;;;;;;;9.30;6.00;;;;;;;4.82;97.29;95946.31;5052514;28;24855;-73
2022/04/11 07:39:29;;;;;;;7.20;5.50;;;;;;;5.14;99.04;95954.53;5052599;28;24414;-73
2022/04/11 07:41:56;;;;;;;9.48;5.97;;;;;;;5.22;95.46;95957.63;5068755;28;24462;-73
2022/04/11 07:44:22;;;;;;;7.97;5.35;;;;;;;5.08;95.14;95956.44;5052807;28;24418;-74
2022/04/11 07:46:49;;;;;;;5.97;4.65;;;;;;;5.30;94.25;95955.59;5052422;28;24411;-75
2022/04/11 07:49:16;;;;;;;6.40;4.93;;;;;;;5.03;94.58;95960.06;5052457;28;24960;-74
2022/04/11 07:51:42;;;;;;;5.45;4.43;;;;;;;5.03;95.39;95960.06;5051638;28;24430;-73
2022/04/11 07:54:09;;;;;;;8.88;4.57;;;;;;;5.08;95.23;95959.00;5052735;28;24419;-73
2022/04/11 07:56:36;;;;;;;8.95;4.75;;;;;;;5.25;92.86;95965.22;5052378;28;24422;-74
2022/04/11 07:59:03;;;;;;;8.93;4.30;;;;;;;5.39;92.43;95956.97;5064921;28;24519;-75
2022/04/11 08:01:29;;;;;;;5.80;3.88;;;;;;;5.95;91.94;95951.31;5056329;28;24436;-74
2022/04/11 08:03:56;;;;;;;5.97;4.50;;;;;;;5.74;89.73;95961.53;5052423;28;24415;-74
2022/04/11 08:06:22;;;;;;;8.57;4.47;;;;;;;6.11;87.11;95956.63;5051779;28;24944;-74
2022/04/11 08:08:49;;;;;;;5.45;3.75;;;;;;;6.18;87.41;95948.59;5051139;28;24424;-75
2022/04/11 08:11:15;;;;;;;4.32;3.45;;;;;;;6.64;89.91;95948.34;5051667;28;24430;-75
2022/04/11 08:13:44;;;;;;;5.40;3.55;;;;;;;7.01;81.95;95945.78;5052338;28;24431;-75
2022/04/11 08:16:11;;;;;;;7.03;4.20;;;;;;;6.72;79.76;95946.28;5065942;28;24437;-75
2022/04/11 08:18:37;;;;;;;5.55;4.00;;;;;;;6.83;81.74;95954.34;5072243;28;24495;-74
2022/04/11 08:21:04;;;;;;;4.78;3.58;;;;;;;6.98;80.14;95955.41;5071041;28;24430;-74
2022/04/11 08:23:31;;;;;;;4.40;3.28;;;;;;;7.47;83.98;95948.78;5071963;28;24518;-73
2022/04/11 08:25:59;;;;;;;6.47;3.80;;;;;;;7.77;75.29;95943.06;5071916;28;24415;-74
2022/04/11 08:28:25;;;;;;;4.95;3.00;;;;;;;7.97;76.89;95948.06;5071904;28;20757;-73
2022/04/11 08:30:53;;;;;;;8.10;3.42;;;;;;;8.29;74.19;95948.19;5071723;28;24472;-77
2022/04/11 08:33:19;;;;;;;4.88;2.72;;;;;;;9.14;72.63;95948.03;5071782;28;20761;-73
2022/04/11 08:35:46;;;;;;;4.85;3.17;;;;;;;9.16;68.88;95943.63;5071766;28;24415;-73
2022/04/11 08:38:12;;;;;;;4.88;3.00;;;;;;;9.49;68.50;95941.84;5071754;28;24495;-73
2022/04/11 08:40:39;;;;;;;3.95;2.60;;;;;;;9.93;64.70;95941.91;5071564;28;24422;-74
2022/04/11 08:43:06;;;;;;;3.88;2.35;;;;;;;10.41;61.80;95942.59;5071596;28;24421;-73
2022/04/11 08:45:33;;;;;;;6.93;2.40;;;;;;;10.57;61.58;95942.53;5071692;28;24423;-74
2022/04/11 08:48:01;;;;;;;4.13;2.50;;;;;;;10.89;69.16;95936.22;5071278;28;24415;-72
2022/04/11 08:50:28;;;;;;;5.13;2.45;;;;;;;11.10;57.38;95933.25;5071324;28;20827;-73
2022/04/11 08:52:56;;;;;;;3.78;2.30;;;;;;;10.93;57.35;95930.84;5071575;28;24431;-74
2022/04/11 08:55:23;;;;;;;5.03;2.30;;;;;;;11.17;57.38;95931.09;5071335;28;25058;-73
2022/04/11 08:57:49;;;;;;;5.30;2.55;;;;;;;10.95;53.18;95923.84;5071673;28;24435;-73
2022/04/11 09:00:20;;;;;;;4.13;2.05;;;;;;;11.05;53.67;95933.53;5071323;28;24513;-73
2022/04/11 09:02:47;;;;;;;4.20;2.22;;;;;;;11.14;57.54;95927.75;5071147;28;24973;-73
2022/04/11 09:05:20;;;;;;;4.22;2.20;;;;;;;11.05;55.80;95927.50;5071588;28;24425;-73
2022/04/11 09:07:50;;;;;;;3.87;1.93;;;;;;;11.52;54.16;95923.69;5071623;28;24472;-73
2022/04/11 09:10:20;;;;;;;2.88;1.75;;;;;;;11.75;57.49;95924.78;5071318;28;24428;-73
2022/04/11 09:12:49;;;;;;;2.10;1.75;;;;;;;11.50;51.68;95922.97;5071247;28;24419;-73
2022/04/11 09:15:16;;;;;;;3.30;2.17;;;;;;;12.01;49.04;95917.91;5071062;28;24429;-73
2022/04/11 09:17:43;;;;;;;4.45;2.47;;;;;;;12.00;48.21;95924.06;5071031;28;25072;-73
2022/04/11 09:20:12;;;;;;;3.53;2.00;;;;;;;11.16;48.43;95917.31;5071023;28;24414;-73
2022/04/11 09:22:40;;;;;;;3.10;1.88;;;;;;;11.38;50.76;95915.03;5070597;28;25042;-73
2022/04/11 09:25:11;;;;;;;5.45;2.35;;;;;;;11.15;49.99;95915.63;5070921;28;24415;-73
2022/04/11 09:27:38;;;;;;;3.47;2.10;;;;;;;11.81;50.51;95901.88;5070768;28;24442;-74
2022/04/11 09:30:19;;;;;;;3.92;2.30;;;;;;;11.95;50.27;95903.59;5071015;28;24419;-74
2022/04/11 09:33:02;;;;;;;4.40;2.22;;;;;;;12.28;46.59;95900.50;5070796;28;24430;-73
2022/04/11 09:35:30;;;;;;;2.65;1.70;;;;;;;12.02;49.31;95896.25;5070628;28;24443;-73
2022/04/11 09:38:12;;;;;;;4.38;2.25;;;;;;;12.04;47.42;95895.19;5070563;28;24455;-74
2022/04/11 09:40:41;;;;;;;2.47;1.73;;;;;;;12.25;48.81;95887.72;5070501;28;24963;-73
2022/04/11 09:43:08;;;;;;;4.13;1.60;;;;;;;12.53;49.80;95899.69;5070553;28;24423;-73
2022/04/11 09:45:40;;;;;;;3.35;2.03;;;;;;;12.54;44.86;95900.50;5070670;28;24430;-74
2022/04/11 09:48:08;;;;;;;2.40;1.90;;;;;;;12.81;46.20;95892.56;5063830;28;25054;-74
2022/04/11 09:50:35;;;;;;;3.85;1.83;;;;;;;12.49;44.88;95887.00;5063580;28;24926;-74
2022/04/11 09:53:11;;;;;;;3.10;1.70;;;;;;;12.77;51.66;95897.16;5062427;28;24435;-73
2022/04/11 09:55:39;;;;;;;2.65;1.63;;;;;;;12.76;44.68;95889.47;5056493;28;24437;-73
2022/04/11 09:58:06;;;;;;;3.15;2.00;;;;;;;12.71;47.73;95888.94;5066219;28;24814;-73
2022/04/11 10:00:34;;;;;;;2.35;1.60;;;;;;;13.09;46.63;95888.88;5050012;28;24427;-73
2022/04/11 10:03:02;;;;;;;2.05;1.70;;;;;;;13.36;46.72;95883.50;5049507;28;24462;-73
2022/04/11 10:05:29;;;;;;;9.80;2.03;;;;;;;13.26;46.65;95887.69;5049547;28;24446;-74
2022/04/11 10:07:56;;;;;;;2.55;2.00;;;;;;;12.93;46.50;95878.72;5049780;28;24477;-73
2022/04/11 10:10:24;;;;;;;5.05;1.92;;;;;;;13.02;50.83;95880.66;5055937;28;24439;-73
2022/04/11 10:12:53;;;;;;;4.65;1.90;;;;;;;13.00;56.15;95877.34;5066250;28;24438;-73
2022/04/11 10:15:20;;;;;;;3.63;1.85;;;;;;;12.67;52.80;95869.31;5060290;28;24453;-74
2022/04/11 10:17:47;;;;;;;3.47;1.95;;;;;;;12.80;52.82;95870.94;5068831;28;24508;-73
2022/04/11 10:20:24;;;;;;;3.35;2.00;;;;;;;12.82;49.30;95871.66;5050510;28;24427;-73
2022/04/11 10:22:56;;;;;;;3.17;1.87;;;;;;;12.90;48.51;95868.53;5064385;28;24442;-73
2022/04/11 10:25:24;;;;;;;4.82;2.30;;;;;;;12.82;53.55;95863.03;5064053;28;24439;-71
2022/04/11 10:28:16;;;;;;;4.25;2.13;;;;;;;12.73;51.27;95863.69;5068491;28;24819;-72
2022/04/11 10:30:44;;;;;;;2.20;1.67;;;;;;;13.15;50.64;95857.22;5057753;28;24463;-74
2022/04/11 10:33:10;;;;;;;2.75;1.80;;;;;;;12.85;52.42;95862.81;5065891;28;24525;-73
2022/04/11 10:35:42;;;;;;;4.30;2.00;;;;;;;12.99;54.62;95859.25;5074024;28;24415;-74
2022/04/11 10:38:09;;;;;;;2.15;1.58;;;;;;;13.06;44.47;95852.69;5073958;28;24466;-74
2022/04/11 10:40:38;;;;;;;2.90;1.85;;;;;;;12.76;53.54;95848.72;5073713;28;24421;-74
2022/04/11 10:43:16;;;;;;;3.15;1.80;;;;;;;12.98;47.17;95849.81;5073987;28;24509;-73
2022/04/11 10:45:45;;;;;;;3.13;1.90;;;;;;;13.15;47.04;95833.81;5063299;28;25204;-74
2022/04/11 10:48:13;;;;;;;3.20;1.70;;;;;;;13.21;50.29;95833.38;5069051;28;24453;-74
2022/04/11 10:50:41;;;;;;;3.00;1.92;;;;;;;13.40;53.44;95835.50;5065674;28;24457;-74
2022/04/11 10:53:24;;;;;;;4.70;1.90;;;;;;;13.40;50.46;95840.72;5069238;28;25067;-74
2022/04/11 10:56:02;;;;;;;4.28;1.88;;;;;;;13.23;46.67;95838.47;5054282;28;24419;-74
2022/04/11 10:58:55;;;;;;;3.43;1.83;;;;;;;13.09;45.84;95831.66;5066784;28;24987;-74
2022/04/11 11:01:57;;;;;;;3.87;1.83;;;;;;;13.20;45.94;95831.72;5031544;28;24482;-73
2022/04/11 11:04:27;;;;;;;2.63;1.70;;;;;;;13.13;48.42;95824.47;5067936;28;24987;-74
2022/04/11 11:07:24;;;;;;;3.28;1.67;;;;;;;13.18;53.93;95825.78;5073320;28;24438;-73
2022/04/11 11:09:56;;;;;;;2.80;1.70;;;;;;;13.17;52.19;95816.34;5055209;28;24976;-73
2022/04/11 11:12:24;;;;;;;4.35;1.90;;;;;;;13.18;43.77;95805.00;5081935;22;24498;-73
2022/04/11 11:14:51;;;;;;;8.02;1.90;;;;;;;13.19;46.18;95806.66;5073455;28;24429;-72
2022/04/11 11:17:17;;;;;;;4.57;1.65;;;;;;;13.21;46.55;95799.56;5073170;28;24411;-73
2022/04/11 11:20:06;;;;;;;3.53;2.00;;;;;;;13.15;45.80;95792.22;5073022;28;25036;-72
2022/04/11 11:22:35;;;;;;;3.72;1.67;;;;;;;13.07;43.41;95794.53;5072242;28;24449;-72
2022/04/11 11:25:16;;;;;;;1.85;1.55;;;;;;;13.01;53.03;95789.78;5064813;28;24841;-72
2022/04/11 11:27:46;;;;;;;2.92;1.60;;;;;;;13.36;49.29;95782.03;5072336;28;24484;-72
2022/04/11 11:30:13;;;;;;;3.53;1.98;;;;;;;13.27;46.32;95778.34;5053051;28;24450;-73
2022/04/11 11:32:41;;;;;;;2.37;1.90;;;;;;;13.37;46.84;95793.28;5052525;28;24430;-70
2022/04/11 11:35:09;;;;;;;2.05;1.48;;;;;;;13.30;47.31;95779.88;5053314;28;24420;-71